Time;durP1;ratioP1;P1;durP2;ratioP2;P2;SDS_P1;SDS_P2;PMS_P1;PMS_P2;Temp;Humidity;BMP_temperature;BMP_pressure;BME280_temperature;BME280_humidity;BME280_pressure;Samples;Min_cycle;Max_cycle;Signal;HPM_P1;HPM_P2
2022/03/31 00:02:38;;;;;;;20.50;8.23;;;;;;;;;;6314837;28;20427;-83
2022/03/31 00:05:42;;;;;;;22.05;7.72;;;;;;;;;;6313517;28;20048;-81
2022/03/31 00:08:47;;;;;;;20.63;7.63;;;;;;;;;;6316774;28;20101;-82
2022/03/31 00:11:52;;;;;;;18.25;7.25;;;;;;;;;;6315907;28;20516;-83
2022/03/31 00:14:55;;;;;;;21.17;7.25;;;;;;;;;;6312803;28;20040;-83
2022/03/31 00:17:59;;;;;;;15.75;6.80;;;;;;;;;;6311614;28;20522;-82
2022/03/31 00:21:03;;;;;;;30.15;8.32;;;;;;;;;;6312729;28;20097;-83
2022/03/31 00:24:09;;;;;;;23.52;8.30;;;;;;;;;;6313609;28;20048;-83
2022/03/31 00:27:12;;;;;;;19.77;7.40;;;;;;;;;;6311298;28;20885;-84
2022/03/31 00:30:15;;;;;;;22.20;8.20;;;;;;;;;;6315313;28;20482;-82
2022/03/31 00:33:19;;;;;;;23.48;7.35;;;;;;;;;;6316888;28;20044;-83
2022/03/31 00:36:22;;;;;;;21.73;6.93;;;;;;;;;;6316171;28;20093;-83
2022/03/31 00:39:32;;;;;;;20.70;7.25;;;;;;;;;;6314647;28;20044;-83
2022/03/31 00:42:39;;;;;;;17.02;6.88;;;;;;;;;;6316671;28;20054;-81
2022/03/31 00:45:48;;;;;;;23.77;8.35;;;;;;;;;;6319259;28;20067;-80
2022/03/31 00:48:52;;;;;;;19.30;6.97;;;;;;;;;;6320718;28;20149;-82
2022/03/31 00:51:55;;;;;;;23.40;7.38;;;;;;;;;;6321283;28;20111;-81
2022/03/31 00:55:02;;;;;;;18.15;7.25;;;;;;;;;;6320917;28;20093;-80
2022/03/31 00:58:06;;;;;;;20.80;7.90;;;;;;;;;;6320805;28;20387;-81
2022/03/31 01:01:13;;;;;;;22.02;7.90;;;;;;;;;;6318911;28;20051;-81
2022/03/31 01:04:16;;;;;;;18.63;7.60;;;;;;;;;;6320907;28;20148;-82
2022/03/31 01:07:20;;;;;;;22.60;8.57;;;;;;;;;;6319220;28;20516;-81
2022/03/31 01:10:24;;;;;;;18.35;8.15;;;;;;;;;;6319747;28;20040;-81
2022/03/31 01:13:28;;;;;;;21.57;8.47;;;;;;;;;;6320704;28;20044;-81
2022/03/31 01:16:32;;;;;;;21.77;8.27;;;;;;;;;;6318853;28;20651;-80
2022/03/31 01:19:35;;;;;;;24.25;8.15;;;;;;;;;;6319870;28;20051;-81
2022/03/31 01:22:38;;;;;;;21.70;7.18;;;;;;;;;;6319869;28;20445;-80
2022/03/31 01:25:43;;;;;;;20.85;7.35;;;;;;;;;;6316609;28;20046;-82
2022/03/31 01:28:46;;;;;;;20.52;7.80;;;;;;;;;;6317598;28;20044;-82
2022/03/31 01:31:50;;;;;;;26.23;8.10;;;;;;;;;;6318018;28;20119;-81
2022/03/31 01:34:54;;;;;;;22.40;8.15;;;;;;;;;;6300775;28;20044;-81
2022/03/31 01:37:57;;;;;;;18.92;7.63;;;;;;;;;;6318588;28;20082;-81
2022/03/31 01:41:02;;;;;;;23.50;7.55;;;;;;;;;;6318412;28;20063;-80
2022/03/31 01:44:05;;;;;;;15.97;6.70;;;;;;;;;;6317773;28;20040;-80
2022/03/31 01:47:08;;;;;;;23.55;7.20;;;;;;;;;;6317821;28;20055;-80
2022/03/31 01:50:12;;;;;;;19.23;7.38;;;;;;;;;;6315752;28;20040;-81
2022/03/31 01:53:15;;;;;;;22.65;8.45;;;;;;;;;;6317520;28;20486;-80
2022/03/31 01:56:19;;;;;;;21.95;8.15;;;;;;;;;;6318125;28;20044;-79
2022/03/31 01:59:32;;;;;;;21.38;7.40;;;;;;;;;;6317836;28;20040;-80
2022/03/31 02:02:35;;;;;;;27.13;8.30;;;;;;;;;;6317123;28;20044;-80
2022/03/31 02:05:41;;;;;;;14.95;7.30;;;;;;;;;;6317531;28;20063;-80
2022/03/31 02:08:45;;;;;;;22.38;8.82;;;;;;;;;;6317741;28;20052;-79
2022/03/31 02:11:52;;;;;;;25.98;9.27;;;;;;;;;;6318855;28;20055;-81
2022/03/31 02:14:55;;;;;;;18.88;8.93;;;;;;;;;;6316717;28;20044;-80
2022/03/31 02:17:59;;;;;;;24.27;8.60;;;;;;;;;;6319003;28;20048;-81
2022/03/31 02:21:02;;;;;;;26.83;9.02;;;;;;;;;;6318721;28;20084;-81
2022/03/31 02:24:06;;;;;;;23.98;8.93;;;;;;;;;;6318041;28;20044;-80
2022/03/31 02:27:11;;;;;;;24.10;10.00;;;;;;;;;;6318633;28;20043;-82
2022/03/31 02:30:14;;;;;;;27.23;9.80;;;;;;;;;;6318436;28;20048;-82
2022/03/31 02:33:17;;;;;;;27.40;10.55;;;;;;;;;;6317000;28;20044;-81
2022/03/31 02:36:21;;;;;;;26.92;9.90;;;;;;;;;;6318054;28;20051;-82
2022/03/31 02:39:28;;;;;;;31.80;12.18;;;;;;;;;;6318486;28;20516;-80
2022/03/31 02:42:35;;;;;;;29.02;11.40;;;;;;;;;;6316896;28;20043;-80
2022/03/31 02:45:38;;;;;;;28.23;13.75;;;;;;;;;;6316961;28;20383;-81
2022/03/31 02:48:44;;;;;;;40.75;17.20;;;;;;;;;;6317235;28;20525;-80
2022/03/31 02:51:47;;;;;;;39.78;16.83;;;;;;;;;;6316503;28;20040;-80
2022/03/31 02:58:13;;;;;;;33.90;15.25;;;;;;;;;;6317448;28;20052;-82
2022/03/31 03:01:16;;;;;;;35.20;17.25;;;;;;;;;;6316626;28;20040;-82
2022/03/31 03:04:20;;;;;;;35.10;16.67;;;;;;;;;;6316741;28;20047;-82
2022/03/31 03:07:23;;;;;;;37.83;16.25;;;;;;;;;;6316122;28;20486;-82
2022/03/31 03:10:26;;;;;;;36.85;15.43;;;;;;;;;;6316614;28;20065;-80
2022/03/31 03:13:32;;;;;;;37.65;16.38;;;;;;;;;;6317237;28;20036;-81
2022/03/31 03:16:36;;;;;;;33.67;15.55;;;;;;;;;;6315948;28;20040;-81
2022/03/31 03:19:39;;;;;;;30.70;14.90;;;;;;;;;;6317091;28;20101;-81
2022/03/31 03:22:43;;;;;;;31.42;14.30;;;;;;;;;;6316019;28;20050;-80
2022/03/31 03:25:47;;;;;;;28.77;13.30;;;;;;;;;;6316242;28;20048;-81
2022/03/31 03:28:52;;;;;;;26.55;13.13;;;;;;;;;;6314290;28;20040;-80
2022/03/31 03:31:58;;;;;;;28.65;12.68;;;;;;;;;;6315849;28;20403;-80
2022/03/31 03:35:01;;;;;;;24.92;11.02;;;;;;;;;;6297020;28;20050;-80
2022/03/31 03:38:07;;;;;;;21.95;11.30;;;;;;;;;;6316759;28;20055;-80
2022/03/31 03:41:12;;;;;;;21.85;10.07;;;;;;;;;;6314124;28;20508;-80
2022/03/31 03:44:17;;;;;;;21.40;10.37;;;;;;;;;;6297634;28;20475;-80
2022/03/31 03:47:23;;;;;;;24.27;10.70;;;;;;;;;;6314852;28;20292;-84
2022/03/31 03:50:27;;;;;;;22.27;11.45;;;;;;;;;;6312667;28;20040;-81
2022/03/31 03:53:30;;;;;;;26.08;11.05;;;;;;;;;;6315719;28;20048;-82
2022/03/31 03:56:36;;;;;;;26.42;11.40;;;;;;;;;;6314274;28;20048;-82
2022/03/31 03:59:43;;;;;;;20.83;10.85;;;;;;;;;;6296673;28;20492;-82
2022/03/31 04:02:47;;;;;;;29.33;12.07;;;;;;;;;;6315790;28;20035;-82
2022/03/31 04:05:51;;;;;;;22.08;11.65;;;;;;;;;;6315684;28;20409;-81
2022/03/31 04:08:54;;;;;;;27.00;11.73;;;;;;;;;;6316518;28;20055;-80
2022/03/31 04:11:58;;;;;;;23.75;11.23;;;;;;;;;;6315841;28;20052;-84
2022/03/31 04:15:04;;;;;;;22.02;10.07;;;;;;;;;;6317062;28;20040;-83
2022/03/31 04:18:08;;;;;;;22.23;10.63;;;;;;;;;;6317359;28;20040;-83
2022/03/31 04:21:13;;;;;;;18.05;10.48;;;;;;;;;;6319696;28;20043;-80
2022/03/31 04:24:17;;;;;;;20.65;10.77;;;;;;;;;;6321505;28;20097;-82
2022/03/31 04:27:20;;;;;;;21.10;10.60;;;;;;;;;;6319645;28;20048;-83
2022/03/31 04:30:26;;;;;;;25.90;11.57;;;;;;;;;;6319714;28;20040;-82
2022/03/31 04:33:30;;;;;;;25.88;10.55;;;;;;;;;;6318988;28;20048;-82
2022/03/31 04:36:33;;;;;;;26.73;12.07;;;;;;;;;;6319755;28;20090;-82
2022/03/31 04:39:36;;;;;;;24.73;11.13;;;;;;;;;;6321101;28;20043;-82
2022/03/31 04:42:39;;;;;;;20.00;11.15;;;;;;;;;;6318565;28;20074;-81
2022/03/31 04:45:44;;;;;;;20.95;10.35;;;;;;;;;;6320875;28;20052;-82
2022/03/31 04:48:48;;;;;;;23.63;10.93;;;;;;;;;;6320634;28;20044;-83
2022/03/31 04:51:52;;;;;;;29.38;11.90;;;;;;;;;;6319008;28;20381;-82
2022/03/31 04:54:55;;;;;;;19.85;10.85;;;;;;;;;;6320096;28;20964;-82
2022/03/31 04:57:58;;;;;;;24.45;10.85;;;;;;;;;;6319167;28;20382;-82
2022/03/31 05:01:03;;;;;;;22.92;11.02;;;;;;;;;;6319124;28;20036;-82
2022/03/31 05:04:06;;;;;;;19.52;11.07;;;;;;;;;;6319273;28;20052;-81
2022/03/31 05:07:09;;;;;;;29.73;11.77;;;;;;;;;;6302450;28;20040;-80
2022/03/31 05:10:13;;;;;;;23.63;11.30;;;;;;;;;;6318302;28;20048;-81
2022/03/31 05:13:16;;;;;;;25.23;11.85;;;;;;;;;;6317946;28;20089;-80
2022/03/31 05:16:23;;;;;;;21.05;10.70;;;;;;;;;;6320086;28;20051;-80
2022/03/31 05:19:26;;;;;;;30.35;12.07;;;;;;;;;;6320059;28;20066;-81
2022/03/31 05:22:30;;;;;;;22.85;11.25;;;;;;;;;;6319902;28;20498;-79
2022/03/31 05:25:36;;;;;;;22.00;10.73;;;;;;;;;;6316521;28;20040;-82
2022/03/31 05:28:39;;;;;;;19.80;12.07;;;;;;;;;;6317388;28;20044;-80
2022/03/31 05:31:44;;;;;;;20.83;10.15;;;;;;;;;;6316748;28;20442;-82
2022/03/31 05:34:47;;;;;;;;;;;;;;;;;;6318221;28;20043;-80
2022/03/31 05:37:51;;;;;;;25.55;11.40;;;;;;;;;;6317439;28;20014;-80
2022/03/31 05:40:55;;;;;;;23.52;10.73;;;;;;;;;;6298552;28;20497;-80
2022/03/31 05:43:58;;;;;;;19.60;10.48;;;;;;;;;;6318147;28;20043;-80
2022/03/31 05:47:03;;;;;;;25.02;11.10;;;;;;;;;;6316937;28;20055;-81
2022/03/31 05:50:08;;;;;;;27.63;11.25;;;;;;;;;;6315987;28;20094;-82
2022/03/31 05:53:13;;;;;;;29.80;13.40;;;;;;;;;;6316651;28;20401;-81
2022/03/31 05:56:16;;;;;;;26.10;14.23;;;;;;;;;;6315780;28;20047;-79
2022/03/31 05:59:19;;;;;;;30.27;14.30;;;;;;;;;;6317589;28;20048;-81
2022/03/31 06:02:24;;;;;;;29.80;13.65;;;;;;;;;;6315128;28;20047;-81
2022/03/31 06:05:48;;;;;;;29.33;14.02;;;;;;;;;;6317353;28;20496;-80
2022/03/31 06:08:52;;;;;;;26.92;13.35;;;;;;;;;;6316045;28;20040;-81
2022/03/31 06:11:55;;;;;;;27.60;14.10;;;;;;;;;;6318297;28;20040;-80
2022/03/31 06:14:58;;;;;;;26.00;13.85;;;;;;;;;;6318001;28;20501;-80
2022/03/31 06:18:06;;;;;;;25.85;13.68;;;;;;;;;;6316146;28;20497;-79
2022/03/31 06:21:11;;;;;;;28.45;13.68;;;;;;;;;;6318091;28;20055;-80
2022/03/31 06:24:17;;;;;;;29.95;14.07;;;;;;;;;;6316512;28;20471;-79
2022/03/31 06:27:20;;;;;;;30.55;14.60;;;;;;;;;;6317538;28;20047;-79
2022/03/31 06:30:23;;;;;;;25.67;14.57;;;;;;;;;;6316095;28;20048;-79
2022/03/31 06:33:28;;;;;;;27.67;15.13;;;;;;;;;;6316669;28;20502;-81
2022/03/31 06:36:32;;;;;;;35.10;15.60;;;;;;;;;;6316669;28;20067;-81
2022/03/31 06:39:35;;;;;;;28.75;15.35;;;;;;;;;;6315329;28;20478;-81
2022/03/31 06:42:39;;;;;;;30.90;16.75;;;;;;;;;;6318159;28;20048;-82
2022/03/31 06:45:42;;;;;;;32.10;16.55;;;;;;;;;;6317468;28;20052;-81
2022/03/31 06:48:49;;;;;;;31.05;16.30;;;;;;;;;;6317255;28;20048;-81
2022/03/31 06:51:55;;;;;;;32.45;17.35;;;;;;;;;;6283897;28;20055;-83
2022/03/31 06:54:58;;;;;;;36.60;19.33;;;;;;;;;;6316155;28;20048;-80
2022/03/31 06:58:02;;;;;;;29.65;17.02;;;;;;;;;;6316673;28;20040;-82
2022/03/31 07:01:05;;;;;;;32.25;16.88;;;;;;;;;;6315448;28;20487;-81
2022/03/31 07:04:11;;;;;;;37.65;18.75;;;;;;;;;;6317529;28;20044;-82
2022/03/31 07:07:17;;;;;;;38.30;19.77;;;;;;;;;;6283780;28;20052;-82
2022/03/31 07:10:21;;;;;;;41.55;18.08;;;;;;;;;;6316898;28;20460;-81
2022/03/31 07:13:25;;;;;;;45.72;19.92;;;;;;;;;;6316498;28;20047;-81
2022/03/31 07:16:30;;;;;;;37.22;19.70;;;;;;;;;;6316833;28;20558;-81
2022/03/31 07:19:36;;;;;;;39.33;19.48;;;;;;;;;;6315709;28;20040;-81
2022/03/31 07:22:43;;;;;;;35.33;20.07;;;;;;;;;;6315945;28;20044;-80
2022/03/31 07:25:47;;;;;;;42.50;21.35;;;;;;;;;;6315218;28;20654;-86
2022/03/31 07:28:51;;;;;;;39.08;21.70;;;;;;;;;;6314052;28;20040;-82
2022/03/31 07:31:54;;;;;;;42.35;23.10;;;;;;;;;;6314176;28;20124;-82
2022/03/31 07:34:59;;;;;;;42.42;23.15;;;;;;;;;;6313211;28;20059;-82
2022/03/31 07:38:03;;;;;;;38.80;21.83;;;;;;;;;;6315576;28;20563;-83
2022/03/31 07:41:07;;;;;;;40.70;21.38;;;;;;;;;;6315702;28;20040;-83
2022/03/31 07:47:59;;;;;;;36.10;22.90;;;;;;;;;;6314524;28;20040;-81
2022/03/31 07:51:04;;;;;;;42.65;22.77;;;;;;;;;;6315794;28;20520;-80
2022/03/31 07:54:08;;;;;;;34.15;21.88;;;;;;;;;;6312599;28;20040;-81
2022/03/31 07:57:11;;;;;;;35.30;21.85;;;;;;;;;;6313444;28;20531;-82
2022/03/31 08:00:15;;;;;;;43.58;21.27;;;;;;;;;;6313759;28;20044;-80
2022/03/31 08:03:19;;;;;;;34.67;20.00;;;;;;;;;;6315717;28;20048;-83
2022/03/31 08:06:24;;;;;;;37.58;20.00;;;;;;;;;;6313074;28;20143;-80
2022/03/31 08:09:27;;;;;;;36.00;20.15;;;;;;;;;;6314455;28;20047;-80
2022/03/31 08:12:30;;;;;;;33.05;19.58;;;;;;;;;;6315727;28;20052;-79
2022/03/31 08:15:34;;;;;;;34.60;19.88;;;;;;;;;;6315892;28;20090;-79
2022/03/31 08:18:37;;;;;;;38.20;20.00;;;;;;;;;;6314116;28;20052;-79
2022/03/31 08:21:42;;;;;;;36.72;21.33;;;;;;;;;;6314472;28;20044;-79
2022/03/31 08:24:46;;;;;;;36.38;21.38;;;;;;;;;;6297836;28;20123;-80
2022/03/31 08:27:49;;;;;;;37.40;21.40;;;;;;;;;;6314022;28;20051;-80
2022/03/31 08:30:54;;;;;;;39.55;21.73;;;;;;;;;;6315130;28;20492;-78
2022/03/31 08:33:58;;;;;;;40.80;21.98;;;;;;;;;;6314646;28;20048;-79
2022/03/31 08:37:03;;;;;;;46.83;23.20;;;;;;;;;;6315592;28;20420;-79
2022/03/31 08:40:08;;;;;;;36.17;24.70;;;;;;;;;;6314742;28;20043;-78
2022/03/31 08:43:11;;;;;;;45.33;25.40;;;;;;;;;;6315708;28;20469;-77
2022/03/31 08:46:15;;;;;;;45.75;26.52;;;;;;;;;;6315423;28;20056;-76
2022/03/31 08:49:19;;;;;;;41.92;22.98;;;;;;;;;;6315184;28;20398;-76
2022/03/31 08:52:27;;;;;;;41.47;24.23;;;;;;;;;;6315869;28;20044;-77
2022/03/31 08:55:30;;;;;;;42.65;23.98;;;;;;;;;;6315591;28;20044;-77
2022/03/31 08:58:34;;;;;;;39.28;23.67;;;;;;;;;;6313968;28;20398;-76
2022/03/31 09:01:39;;;;;;;44.33;24.83;;;;;;;;;;6316004;28;20486;-76
2022/03/31 09:04:45;;;;;;;45.17;26.08;;;;;;;;;;6315631;28;20105;-76
2022/03/31 09:07:56;;;;;;;47.65;25.20;;;;;;;;;;6319210;28;20059;-76
2022/03/31 09:11:00;;;;;;;43.22;24.73;;;;;;;;;;6318291;28;20052;-76
2022/03/31 09:14:04;;;;;;;44.97;25.25;;;;;;;;;;6319047;28;20115;-75
2022/03/31 09:17:11;;;;;;;42.97;24.98;;;;;;;;;;6318866;28;20057;-76
2022/03/31 09:20:14;;;;;;;38.40;22.40;;;;;;;;;;6319522;28;20398;-75
2022/03/31 09:23:19;;;;;;;43.42;24.25;;;;;;;;;;6319127;28;20040;-76
2022/03/31 09:26:22;;;;;;;76.88;44.95;;;;;;;;;;6320631;28;20077;-72
2022/03/31 09:29:26;;;;;;;32.35;18.65;;;;;;;;;;6317047;28;20059;-72
2022/03/31 09:32:29;;;;;;;35.38;21.20;;;;;;;;;;6316039;28;20054;-74
2022/03/31 09:35:32;;;;;;;41.33;25.38;;;;;;;;;;6316901;28;20051;-73
2022/03/31 09:38:37;;;;;;;35.53;22.63;;;;;;;;;;6318913;28;20048;-72
2022/03/31 09:41:44;;;;;;;40.88;23.17;;;;;;;;;;6317801;28;20044;-74
2022/03/31 09:44:56;;;;;;;40.28;23.25;;;;;;;;;;6317368;28;20052;-74
2022/03/31 09:48:02;;;;;;;34.47;20.77;;;;;;;;;;6268801;28;20040;-73
2022/03/31 09:51:05;;;;;;;37.40;22.65;;;;;;;;;;6268409;28;20151;-74
2022/03/31 09:54:19;;;;;;;39.72;21.55;;;;;;;;;;6267615;28;20048;-74
2022/03/31 09:57:22;;;;;;;40.83;24.07;;;;;;;;;;6266362;28;20120;-74
2022/03/31 10:00:26;;;;;;;30.48;20.92;;;;;;;;;;6268348;28;20110;-72
2022/03/31 10:03:28;;;;;;;34.75;21.75;;;;;;;;;;6267842;28;20555;-73
2022/03/31 10:06:35;;;;;;;44.08;22.98;;;;;;;;;;6266705;28;20529;-73
2022/03/31 10:09:40;;;;;;;;;;;;;;;;;;6268578;28;20037;-73
2022/03/31 10:12:51;;;;;;;39.25;20.98;;;;;;;;;;6268752;28;20286;-73
2022/03/31 10:15:58;;;;;;;41.33;22.95;;;;;;;;;;6268162;28;20483;-74
2022/03/31 10:19:01;;;;;;;38.72;22.23;;;;;;;;;;6268295;28;20052;-74
2022/03/31 10:22:09;;;;;;;44.10;24.90;;;;;;;;;;6267515;28;20051;-74
2022/03/31 10:25:13;;;;;;;38.58;22.15;;;;;;;;;;6268285;28;20049;-73
2022/03/31 10:28:21;;;;;;;36.28;23.65;;;;;;;;;;6268754;28;20384;-75
2022/03/31 10:31:33;;;;;;;44.95;25.52;;;;;;;;;;6268614;28;20045;-74
2022/03/31 10:34:36;;;;;;;45.13;25.60;;;;;;;;;;6268836;28;20052;-77
2022/03/31 10:37:40;;;;;;;41.25;25.05;;;;;;;;;;6267778;28;20041;-76
2022/03/31 10:40:44;;;;;;;40.63;25.75;;;;;;;;;;6268777;28;20045;-78
2022/03/31 10:43:53;;;;;;;40.80;25.40;;;;;;;;;;6267933;28;20056;-78
2022/03/31 10:47:00;;;;;;;40.72;24.58;;;;;;;;;;6299684;28;20574;-78
2022/03/31 10:50:04;;;;;;;41.60;25.60;;;;;;;;;;6317798;28;20048;-78
2022/03/31 10:53:07;;;;;;;44.15;24.70;;;;;;;;;;6316529;28;20582;-77
2022/03/31 10:56:17;;;;;;;44.50;26.17;;;;;;;;;;6318276;28;20044;-77
2022/03/31 10:59:22;;;;;;;44.17;26.40;;;;;;;;;;6315953;28;20040;-76
2022/03/31 11:02:26;;;;;;;41.08;23.23;;;;;;;;;;6317011;28;20040;-76
2022/03/31 11:05:32;;;;;;;60.23;32.97;;;;;;;;;;6315873;28;20052;-79
2022/03/31 11:08:41;;;;;;;43.75;26.02;;;;;;;;;;6316917;28;20044;-77
2022/03/31 11:11:44;;;;;;;39.20;24.80;;;;;;;;;;6315821;28;20059;-76
2022/03/31 11:14:54;;;;;;;47.00;24.30;;;;;;;;;;6317504;28;20375;-77
2022/03/31 11:18:00;;;;;;;40.35;25.48;;;;;;;;;;6315665;28;20474;-76
2022/03/31 11:21:04;;;;;;;54.45;28.92;;;;;;;;;;6315021;28;20044;-77
2022/03/31 11:24:07;;;;;;;41.25;25.10;;;;;;;;;;6314815;28;20040;-77
2022/03/31 11:27:11;;;;;;;35.80;25.13;;;;;;;;;;6313483;28;20044;-76
2022/03/31 11:30:16;;;;;;;43.97;27.08;;;;;;;;;;6311145;28;20044;-75
2022/03/31 11:33:21;;;;;;;37.88;23.30;;;;;;;;;;6311198;28;20047;-75
2022/03/31 11:36:25;;;;;;;44.00;26.60;;;;;;;;;;6312840;28;20541;-75
2022/03/31 11:39:30;;;;;;;32.03;22.23;;;;;;;;;;6312245;28;20044;-74
2022/03/31 11:42:33;;;;;;;40.95;23.38;;;;;;;;;;6312287;28;20040;-75
2022/03/31 11:45:38;;;;;;;41.20;23.70;;;;;;;;;;6312902;28;20502;-77
2022/03/31 11:48:45;;;;;;;36.13;22.60;;;;;;;;;;6312863;28;20044;-74
2022/03/31 11:51:48;;;;;;;46.78;27.23;;;;;;;;;;6315254;28;20044;-75
2022/03/31 11:54:52;;;;;;;46.17;26.33;;;;;;;;;;6314985;28;20398;-74
2022/03/31 11:57:56;;;;;;;41.17;25.42;;;;;;;;;;6315964;28;20040;-75
2022/03/31 12:01:01;;;;;;;44.20;28.42;;;;;;;;;;6313953;28;20048;-74
2022/03/31 12:04:04;;;;;;;45.40;25.17;;;;;;;;;;6314724;28;20094;-76
2022/03/31 12:07:10;;;;;;;;;;;;;;;;;;6316609;28;20513;-75
2022/03/31 12:10:14;;;;;;;57.70;32.80;;;;;;;;;;6315522;28;19973;-75
2022/03/31 12:13:17;;;;;;;38.42;24.45;;;;;;;;;;6313088;28;20044;-74
2022/03/31 12:16:25;;;;;;;40.33;25.52;;;;;;;;;;6316476;28;20040;-74
2022/03/31 12:19:37;;;;;;;41.65;24.08;;;;;;;;;;6316475;28;20051;-74
2022/03/31 12:22:40;;;;;;;41.38;23.63;;;;;;;;;;6315142;28;20052;-75
2022/03/31 12:25:44;;;;;;;36.88;22.95;;;;;;;;;;6315501;28;20048;-74
2022/03/31 12:28:47;;;;;;;66.45;43.60;;;;;;;;;;6316435;28;20130;-74
2022/03/31 12:32:01;;;;;;;41.00;25.63;;;;;;;;;;6315004;28;20048;-75
2022/03/31 12:35:05;;;;;;;43.50;27.05;;;;;;;;;;6314378;28;20047;-74
2022/03/31 12:38:10;;;;;;;41.28;24.88;;;;;;;;;;6316479;28;20073;-74
2022/03/31 12:41:18;;;;;;;49.22;26.20;;;;;;;;;;6320674;28;20063;-74
2022/03/31 12:44:24;;;;;;;56.40;36.25;;;;;;;;;;6321043;28;20056;-74
2022/03/31 12:47:30;;;;;;;46.42;29.08;;;;;;;;;;6320067;28;20077;-75
2022/03/31 12:50:34;;;;;;;55.17;28.20;;;;;;;;;;6319958;28;20067;-74
2022/03/31 12:53:41;;;;;;;52.72;29.95;;;;;;;;;;6320560;28;20067;-73
2022/03/31 12:56:46;;;;;;;45.45;26.70;;;;;;;;;;6318846;28;20063;-73
2022/03/31 13:00:00;;;;;;;49.65;29.40;;;;;;;;;;6320500;28;20040;-73
2022/03/31 13:03:19;;;;;;;50.58;28.58;;;;;;;;;;6320700;28;20080;-73
2022/03/31 13:06:22;;;;;;;47.15;27.95;;;;;;;;;;6319213;28;20048;-74
2022/03/31 13:09:26;;;;;;;49.05;26.48;;;;;;;;;;6319296;28;20479;-74
2022/03/31 13:12:32;;;;;;;41.03;25.80;;;;;;;;;;6320110;28;20052;-73
2022/03/31 13:15:39;;;;;;;36.70;25.17;;;;;;;;;;6319577;28;20048;-74
2022/03/31 13:18:44;;;;;;;50.80;29.38;;;;;;;;;;6319935;28;20450;-73
2022/03/31 13:21:47;;;;;;;45.25;27.08;;;;;;;;;;6319273;28;20523;-74
2022/03/31 13:24:51;;;;;;;46.60;27.35;;;;;;;;;;6318729;28;20490;-73
2022/03/31 13:27:55;;;;;;;42.22;27.45;;;;;;;;;;6318061;28;20048;-74
2022/03/31 13:30:57;;;;;;;44.35;26.70;;;;;;;;;;6315413;28;20052;-74
2022/03/31 13:34:02;;;;;;;47.28;27.35;;;;;;;;;;6318708;28;20052;-73
2022/03/31 13:37:06;;;;;;;53.28;28.08;;;;;;;;;;6318792;28;20143;-72
2022/03/31 13:40:11;;;;;;;49.88;28.02;;;;;;;;;;6317217;28;20044;-74
2022/03/31 13:43:14;;;;;;;41.85;25.83;;;;;;;;;;6318260;28;20052;-73
2022/03/31 13:46:20;;;;;;;46.22;28.17;;;;;;;;;;6317969;28;20052;-72
2022/03/31 13:49:25;;;;;;;;;;;;;;;;;;6318346;28;20429;-73
2022/03/31 13:52:30;;;;;;;45.83;27.88;;;;;;;;;;6315645;28;19932;-75
2022/03/31 13:55:35;;;;;;;42.15;25.20;;;;;;;;;;6315114;28;20126;-73
2022/03/31 14:02:01;;;;;;;51.88;29.02;;;;;;;;;;6317007;28;20046;-74
2022/03/31 14:05:05;;;;;;;51.50;29.55;;;;;;;;;;6316022;28;20044;-74
2022/03/31 14:08:10;;;;;;;;;;;;;;;;;;6318333;28;20094;-75
2022/03/31 14:11:15;;;;;;;43.75;26.75;;;;;;;;;;6316481;28;19920;-74
2022/03/31 14:14:21;;;;;;;41.55;27.13;;;;;;;;;;6316584;28;20044;-76
2022/03/31 14:17:24;;;;;;;56.22;31.27;;;;;;;;;;6318711;28;20055;-75
2022/03/31 14:20:27;;;;;;;45.70;29.55;;;;;;;;;;6316717;28;20040;-74
2022/03/31 14:23:30;;;;;;;45.42;25.67;;;;;;;;;;6318550;28;20051;-75
2022/03/31 14:26:36;;;;;;;49.10;28.83;;;;;;;;;;6317509;28;20044;-76
2022/03/31 14:29:44;;;;;;;51.25;28.70;;;;;;;;;;6316933;28;20044;-77
2022/03/31 14:32:50;;;;;;;50.90;30.38;;;;;;;;;;6317193;28;20055;-77
2022/03/31 14:35:53;;;;;;;55.28;31.27;;;;;;;;;;6317302;28;20486;-77
2022/03/31 14:38:57;;;;;;;57.60;33.55;;;;;;;;;;6316930;28;20497;-77
2022/03/31 14:42:04;;;;;;;79.15;48.83;;;;;;;;;;6316253;28;20044;-76
2022/03/31 14:45:09;;;;;;;51.13;29.02;;;;;;;;;;6316785;28;20048;-76
2022/03/31 14:48:13;;;;;;;47.33;28.65;;;;;;;;;;6317700;28;20097;-75
2022/03/31 14:51:16;;;;;;;59.08;29.75;;;;;;;;;;6317667;28;20055;-75
2022/03/31 14:54:19;;;;;;;52.78;28.50;;;;;;;;;;6316373;28;20047;-75
2022/03/31 14:57:26;;;;;;;46.67;29.65;;;;;;;;;;6316964;28;20127;-74
2022/03/31 15:00:31;;;;;;;73.90;32.88;;;;;;;;;;6316205;28;20101;-75
2022/03/31 15:03:34;;;;;;;53.80;31.35;;;;;;;;;;6316065;28;20054;-74
2022/03/31 15:06:37;;;;;;;60.10;32.17;;;;;;;;;;6316976;28;20055;-75
2022/03/31 15:16:27;;;;;;;49.80;28.92;;;;;;;;;;6316088;28;20067;-77
2022/03/31 15:19:31;;;;;;;57.22;32.95;;;;;;;;;;6315152;28;20044;-75
2022/03/31 15:22:34;;;;;;;84.07;48.22;;;;;;;;;;6317059;28;20048;-76
2022/03/31 15:25:38;;;;;;;64.63;31.73;;;;;;;;;;6317535;28;20051;-75
2022/03/31 15:28:42;;;;;;;45.55;28.80;;;;;;;;;;6307301;28;20044;-75
2022/03/31 15:31:46;;;;;;;47.58;27.63;;;;;;;;;;6288293;28;20498;-76
2022/03/31 15:34:49;;;;;;;44.20;25.10;;;;;;;;;;6288575;28;20066;-75
2022/03/31 15:37:56;;;;;;;45.60;26.92;;;;;;;;;;6289933;28;20040;-75
2022/03/31 15:41:01;;;;;;;49.90;26.63;;;;;;;;;;6290210;28;20055;-76
2022/03/31 15:44:07;;;;;;;50.00;27.77;;;;;;;;;;6290947;28;20051;-76
2022/03/31 15:47:11;;;;;;;42.97;24.63;;;;;;;;;;6291042;28;20048;-75
2022/03/31 15:50:15;;;;;;;50.63;26.27;;;;;;;;;;6290397;28;20461;-75
2022/03/31 15:53:18;;;;;;;43.00;24.90;;;;;;;;;;6288833;28;20110;-75
2022/03/31 15:56:23;;;;;;;43.35;25.58;;;;;;;;;;6288719;28;20057;-75
2022/03/31 15:59:28;;;;;;;58.40;28.73;;;;;;;;;;6287319;28;20133;-75
2022/03/31 16:02:31;;;;;;;65.07;25.35;;;;;;;;;;6289588;28;20109;-75
2022/03/31 16:05:34;;;;;;;41.95;24.90;;;;;;;;;;6288273;28;20314;-77
2022/03/31 16:08:43;;;;;;;43.88;23.00;;;;;;;;;;6272878;28;20048;-76
2022/03/31 16:11:46;;;;;;;57.60;27.15;;;;;;;;;;6289697;28;20443;-75
2022/03/31 16:14:52;;;;;;;44.00;25.58;;;;;;;;;;6294816;28;20047;-75
2022/03/31 16:17:55;;;;;;;44.85;25.33;;;;;;;;;;6295320;28;20052;-75
2022/03/31 16:21:11;;;;;;;55.10;26.48;;;;;;;;;;6296846;28;20053;-76
2022/03/31 16:24:17;;;;;;;46.08;25.75;;;;;;;;;;6295810;28;20173;-77
2022/03/31 16:27:20;;;;;;;42.60;23.38;;;;;;;;;;6294511;28;20416;-76
2022/03/31 16:30:24;;;;;;;38.17;22.73;;;;;;;;;;6294390;28;20178;-77
2022/03/31 16:33:28;;;;;;;42.50;24.50;;;;;;;;;;6295073;28;20048;-76
2022/03/31 16:36:31;;;;;;;43.13;23.63;;;;;;;;;;6295402;28;20465;-77
2022/03/31 16:39:34;;;;;;;42.72;23.63;;;;;;;;;;6296312;28;20320;-77
2022/03/31 16:42:37;;;;;;;47.03;24.90;;;;;;;;;;6294768;28;20056;-76
2022/03/31 16:45:42;;;;;;;41.05;22.90;;;;;;;;;;6295272;28;20048;-76
2022/03/31 16:48:48;;;;;;;37.65;20.75;;;;;;;;;;6294600;28;20433;-77
2022/03/31 16:51:51;;;;;;;30.02;18.08;;;;;;;;;;6295643;28;20097;-77
2022/03/31 16:54:55;;;;;;;33.35;18.42;;;;;;;;;;6295579;28;20089;-77
2022/03/31 16:58:00;;;;;;;;;;;;;;;;;;6294716;28;20090;-78
2022/03/31 17:01:05;;;;;;;30.02;17.80;;;;;;;;;;6295977;28;19921;-77
2022/03/31 17:04:09;;;;;;;24.52;17.70;;;;;;;;;;6295831;28;20067;-77
2022/03/31 17:07:13;;;;;;;41.72;25.98;;;;;;;;;;6293312;28;20080;-79
2022/03/31 17:10:18;;;;;;;32.47;20.13;;;;;;;;;;6295646;28;20044;-78
2022/03/31 17:13:21;;;;;;;34.85;19.83;;;;;;;;;;6295288;28;20106;-78
2022/03/31 17:16:26;;;;;;;33.17;19.58;;;;;;;;;;6295004;28;20494;-78
2022/03/31 17:19:32;;;;;;;31.92;19.98;;;;;;;;;;6293876;28;20499;-76
2022/03/31 17:22:35;;;;;;;28.75;19.27;;;;;;;;;;6293594;28;20126;-77
2022/03/31 17:25:41;;;;;;;24.88;16.60;;;;;;;;;;6294361;28;20417;-76
2022/03/31 17:28:46;;;;;;;27.63;19.27;;;;;;;;;;6294577;28;20047;-78
2022/03/31 17:31:51;;;;;;;29.67;19.08;;;;;;;;;;6293269;28;20037;-76
2022/03/31 17:34:54;;;;;;;31.33;19.10;;;;;;;;;;6293945;28;20101;-78
2022/03/31 17:37:57;;;;;;;32.83;19.45;;;;;;;;;;6293971;28;20052;-76
2022/03/31 17:41:01;;;;;;;32.83;20.02;;;;;;;;;;6293374;28;20383;-77
2022/03/31 17:44:04;;;;;;;18.45;13.45;;;;;;;;;;6291474;28;20123;-77
2022/03/31 17:47:09;;;;;;;24.05;15.52;;;;;;;;;;6291085;28;20052;-77
2022/03/31 17:50:16;;;;;;;19.52;12.93;;;;;;;;;;6293247;28;20494;-78
2022/03/31 17:53:22;;;;;;;21.35;14.77;;;;;;;;;;6291744;28;20048;-77
2022/03/31 17:56:27;;;;;;;;;;;;;;;;;;6291993;28;20044;-77
2022/03/31 17:59:31;;;;;;;23.83;16.08;;;;;;;;;;6290342;28;19921;-77
2022/03/31 18:02:37;;;;;;;35.72;20.02;;;;;;;;;;6293071;28;20201;-76
2022/03/31 18:05:42;;;;;;;40.60;20.88;;;;;;;;;;6293297;28;20407;-77
2022/03/31 18:08:46;;;;;;;33.00;18.65;;;;;;;;;;6291904;28;20123;-78
2022/03/31 18:11:49;;;;;;;41.47;20.77;;;;;;;;;;6289211;28;20048;-78
2022/03/31 18:14:53;;;;;;;33.25;20.88;;;;;;;;;;6289865;28;20604;-78
2022/03/31 18:18:00;;;;;;;37.42;20.60;;;;;;;;;;6290584;28;20094;-78